Time;durP1;ratioP1;P1;durP2;ratioP2;P2;SDS_P1;SDS_P2;PMS_P1;PMS_P2;Temp;Humidity;BMP_temperature;BMP_pressure;BME280_temperature;BME280_humidity;BME280_pressure;Samples;Min_cycle;Max_cycle;Signal;HPM_P1;HPM_P2
2021/08/05 05:02:08;;;;;;;7.90;7.10;;;;;;;29.52;56.10;94496.25;5188043;23;20047;-77
2021/08/05 05:04:34;;;;;;;8.48;6.18;;;;;;;29.68;55.48;94516.19;4927425;28;20031;-75
2021/08/05 05:06:59;;;;;;;7.53;6.82;;;;;;;29.50;55.46;94506.44;4967024;28;20491;-74
2021/08/05 05:09:25;;;;;;;9.77;6.90;;;;;;;29.88;54.41;94506.94;4966460;28;20042;-74
2021/08/05 05:11:51;;;;;;;8.73;6.55;;;;;;;29.96;54.61;94517.69;4967212;28;20042;-75
2021/08/05 05:14:17;;;;;;;7.50;6.80;;;;;;;29.94;53.82;94505.75;4967339;28;20027;-75
2021/08/05 05:16:42;;;;;;;9.18;7.10;;;;;;;30.56;52.23;94515.47;4945664;28;20500;-74
2021/08/05 05:19:08;;;;;;;9.48;6.15;;;;;;;30.90;52.25;94514.06;4931484;28;20086;-75
2021/08/05 05:21:33;;;;;;;9.65;6.30;;;;;;;31.32;50.75;94506.22;4949029;28;20039;-75
2021/08/05 05:23:59;;;;;;;6.70;6.10;;;;;;;31.26;51.19;94509.34;4921630;29;20113;-74
2021/08/05 05:26:24;;;;;;;11.00;7.35;;;;;;;29.45;53.88;94499.31;4947058;29;20019;-75
2021/08/05 05:28:50;;;;;;;17.30;7.85;;;;;;;28.26;58.21;94494.06;4934173;29;20058;-74
2021/08/05 05:31:16;;;;;;;6.53;5.80;;;;;;;31.37;50.15;94499.13;4933495;29;20188;-75
2021/08/05 05:33:41;;;;;;;10.85;6.78;;;;;;;29.31;55.66;94503.09;4948864;29;20027;-76
2021/08/05 05:36:07;;;;;;;7.03;6.38;;;;;;;29.90;54.23;94510.09;4934257;29;20460;-75
2021/08/05 05:38:32;;;;;;;7.90;7.18;;;;;;;29.58;54.62;94519.88;4931873;29;20038;-74
2021/08/05 05:40:58;;;;;;;9.07;6.25;;;;;;;31.18;51.93;94516.25;4951428;29;20034;-75
2021/08/05 05:43:23;;;;;;;6.88;5.97;;;;;;;31.79;49.92;94507.25;4947809;29;20055;-75
2021/08/05 05:45:49;;;;;;;10.20;6.07;;;;;;;30.22;53.41;94509.88;4934004;29;20031;-75
2021/08/05 05:48:14;;;;;;;6.95;6.22;;;;;;;30.57;52.75;94510.91;4949779;29;20058;-75
2021/08/05 05:50:40;;;;;;;9.15;6.28;;;;;;;29.87;54.39;94505.38;4950549;29;20035;-74
2021/08/05 05:53:05;;;;;;;10.73;6.65;;;;;;;29.96;54.18;94500.91;4902016;29;20035;-76
2021/08/05 05:55:31;;;;;;;10.43;6.15;;;;;;;30.53;52.58;94491.22;4932224;29;20046;-76
2021/08/05 05:57:59;;;;;;;8.48;6.82;;;;;;;30.59;52.08;94498.03;4930993;29;20118;-75
2021/08/05 06:00:26;;;;;;;8.45;7.07;;;;;;;31.47;50.83;94494.25;4921542;29;20041;-75
2021/08/05 06:02:51;;;;;;;8.75;6.50;;;;;;;30.95;51.70;94485.31;4929482;29;20039;-73
2021/08/05 06:05:17;;;;;;;15.25;6.90;;;;;;;31.79;48.62;94485.81;4912180;29;20031;-74
2021/08/05 06:07:46;;;;;;;8.35;6.40;;;;;;;32.10;47.74;94491.03;4928621;29;20569;-74
2021/08/05 06:10:13;;;;;;;7.47;5.85;;;;;;;31.66;48.45;94485.97;4929137;29;20031;-75
2021/08/05 06:12:40;;;;;;;9.38;5.65;;;;;;;31.97;48.91;94480.44;4895795;29;20032;-75
2021/08/05 06:15:06;;;;;;;9.18;5.50;;;;;;;32.92;46.22;94478.38;4929448;29;20028;-75
2021/08/05 06:17:31;;;;;;;6.28;5.68;;;;;;;31.76;48.44;94477.59;4919166;29;20054;-75
2021/08/05 06:19:56;;;;;;;9.00;6.80;;;;;;;31.05;49.89;94473.53;4948263;29;20058;-75
2021/08/05 06:22:22;;;;;;;9.20;6.13;;;;;;;32.49;47.03;94481.19;4948552;29;20043;-75
2021/08/05 06:24:47;;;;;;;12.48;6.63;;;;;;;30.71;51.13;94477.63;4949066;29;20035;-75
2021/08/05 06:27:13;;;;;;;8.75;6.32;;;;;;;31.28;49.55;94466.97;4929560;29;20027;-75
2021/08/05 06:29:38;;;;;;;8.50;5.93;;;;;;;31.46;49.68;94465.91;4944084;28;20497;-75
2021/08/05 06:32:06;;;;;;;9.38;5.95;;;;;;;33.32;46.06;94466.22;4928882;29;20039;-74
2021/08/05 06:34:32;;;;;;;7.35;6.65;;;;;;;30.98;50.87;94452.59;4947315;29;20556;-75
2021/08/05 06:36:57;;;;;;;8.80;5.78;;;;;;;31.22;51.02;94466.34;4948825;29;20050;-75
2021/08/05 06:39:23;;;;;;;11.60;6.03;;;;;;;32.40;47.43;94446.31;4922556;29;20027;-75
2021/08/05 06:41:48;;;;;;;5.75;5.15;;;;;;;32.94;47.21;94452.00;4931653;29;20074;-75
2021/08/05 06:44:13;;;;;;;9.20;6.13;;;;;;;31.28;50.20;94438.31;4914869;29;20499;-74
2021/08/05 06:46:39;;;;;;;10.35;7.05;;;;;;;30.77;50.72;94430.13;4917143;29;20042;-74
2021/08/05 06:49:04;;;;;;;8.57;6.40;;;;;;;31.41;50.85;94436.59;4932395;29;20023;-74
2021/08/05 06:51:30;;;;;;;7.03;6.30;;;;;;;31.26;51.76;94435.16;4931946;29;20023;-73
2021/08/05 06:53:55;;;;;;;7.32;5.55;;;;;;;32.75;47.64;94426.34;4898894;29;20085;-74
2021/08/05 06:56:21;;;;;;;10.30;7.78;;;;;;;30.85;49.59;94418.66;4945547;29;20507;-76
2021/08/05 06:58:46;;;;;;;7.97;6.18;;;;;;;31.93;48.60;94425.88;4917381;29;20031;-74
2021/08/05 07:01:12;;;;;;;11.95;6.13;;;;;;;31.59;48.72;94421.34;4930956;29;20051;-74
2021/08/05 07:03:37;;;;;;;7.00;5.85;;;;;;;33.10;45.97;94420.84;4932763;29;20015;-74
2021/08/05 07:06:04;;;;;;;8.02;5.72;;;;;;;32.55;46.33;94421.69;4915940;29;20039;-74
2021/08/05 07:08:30;;;;;;;10.10;6.50;;;;;;;31.80;47.21;94414.25;4927268;29;20036;-74
2021/08/05 07:10:55;;;;;;;8.93;6.75;;;;;;;31.58;47.35;94419.78;4927377;29;20568;-74
2021/08/05 07:13:21;;;;;;;12.23;6.68;;;;;;;31.66;48.45;94419.75;4943944;29;20499;-73
2021/08/05 07:15:46;;;;;;;9.07;6.13;;;;;;;31.23;49.37;94416.25;4940339;29;20032;-76
2021/08/05 07:18:11;;;;;;;7.50;6.35;;;;;;;31.01;49.09;94414.50;4925974;29;20023;-74
2021/08/05 07:20:37;;;;;;;10.40;7.10;;;;;;;31.22;49.96;94412.00;4928521;29;20039;-75
2021/08/05 07:23:02;;;;;;;12.63;7.47;;;;;;;30.71;49.91;94400.03;4929531;29;20039;-74
2021/08/05 07:25:28;;;;;;;9.60;6.97;;;;;;;30.87;49.88;94404.97;4929594;29;20042;-75
2021/08/05 07:27:53;;;;;;;9.80;7.90;;;;;;;30.21;51.05;94409.41;4927430;29;20023;-76
2021/08/05 07:30:19;;;;;;;10.98;6.90;;;;;;;30.65;50.29;94420.00;4941883;29;20059;-73
2021/08/05 07:32:44;;;;;;;13.27;7.43;;;;;;;30.33;50.11;94415.75;4928132;29;20074;-73
2021/08/05 07:35:10;;;;;;;10.20;7.65;;;;;;;30.23;50.73;94405.31;4944128;29;20050;-73
2021/08/05 07:37:35;;;;;;;8.02;6.30;;;;;;;31.08;49.41;94403.31;4943847;29;20035;-74
2021/08/05 07:40:01;;;;;;;10.63;7.05;;;;;;;30.54;50.50;94423.25;4942648;28;20034;-75
2021/08/05 07:42:27;;;;;;;7.75;5.95;;;;;;;30.87;50.18;94416.47;4930085;29;20023;-74
2021/08/05 07:44:52;;;;;;;11.35;6.63;;;;;;;30.56;50.32;94432.56;4944140;29;20044;-74
2021/08/05 07:47:18;;;;;;;8.90;7.57;;;;;;;30.57;50.10;94431.47;4923373;29;20551;-73
2021/08/05 07:49:44;;;;;;;13.77;7.45;;;;;;;31.02;49.09;94416.03;4926922;29;20026;-74
2021/08/05 07:52:10;;;;;;;12.30;7.30;;;;;;;30.98;49.41;94425.03;4929469;29;20054;-72
2021/08/05 07:54:35;;;;;;;11.68;6.88;;;;;;;30.77;49.07;94417.53;4947210;29;20416;-74
2021/08/05 07:57:01;;;;;;;10.45;7.13;;;;;;;30.61;48.96;94420.94;4913618;29;20074;-74
2021/08/05 07:59:26;;;;;;;8.65;6.35;;;;;;;30.60;49.87;94419.38;4947545;29;20548;-73
2021/08/05 08:01:52;;;;;;;8.68;6.60;;;;;;;30.84;48.44;94420.56;4937250;28;20044;-73
2021/08/05 08:04:17;;;;;;;10.43;7.43;;;;;;;31.02;47.69;94417.97;4930103;29;20524;-73
2021/08/05 08:06:43;;;;;;;8.40;6.95;;;;;;;31.18;48.48;94405.69;4942812;29;20051;-73
2021/08/05 08:09:08;;;;;;;11.50;7.53;;;;;;;31.16;49.26;94397.19;4922420;29;20487;-74
2021/08/05 08:11:34;;;;;;;12.90;7.90;;;;;;;30.52;50.75;94391.50;4920960;29;20087;-75
2021/08/05 08:13:59;;;;;;;8.20;7.22;;;;;;;31.45;49.13;94397.38;4931488;29;20250;-73
2021/08/05 08:16:25;;;;;;;7.97;7.15;;;;;;;31.03;49.99;94388.19;4923159;29;20055;-73
2021/08/05 08:18:50;;;;;;;12.05;7.18;;;;;;;31.67;48.87;94393.75;4925738;29;20043;-74
2021/08/05 08:21:16;;;;;;;10.18;7.30;;;;;;;31.76;48.75;94392.66;4896840;29;20027;-75
2021/08/05 08:23:42;;;;;;;8.40;6.30;;;;;;;31.49;48.47;94387.59;4941554;29;20031;-74
2021/08/05 08:26:08;;;;;;;10.90;7.50;;;;;;;31.52;47.38;94387.00;4911959;29;20401;-74
2021/08/05 08:28:33;;;;;;;16.05;7.82;;;;;;;31.26;48.39;94383.50;4927580;29;20024;-74
2021/08/05 08:30:59;;;;;;;9.65;6.78;;;;;;;31.55;48.65;94385.56;4925996;29;20492;-74
2021/08/05 08:33:24;;;;;;;11.35;6.82;;;;;;;31.37;48.63;94381.31;4927794;29;20042;-74
2021/08/05 08:35:50;;;;;;;9.75;7.47;;;;;;;31.35;47.32;94389.63;4925913;29;20034;-75
2021/08/05 08:38:15;;;;;;;11.75;7.28;;;;;;;31.62;47.47;94384.00;4927993;29;20023;-74
2021/08/05 08:40:41;;;;;;;10.32;7.68;;;;;;;31.47;47.80;94373.72;4924369;29;20036;-74
2021/08/05 08:43:06;;;;;;;12.05;7.35;;;;;;;32.00;48.34;94369.91;4925282;29;20074;-73
2021/08/05 08:45:32;;;;;;;11.55;6.85;;;;;;;32.35;47.07;94358.78;4926266;29;20519;-74
2021/08/05 08:47:58;;;;;;;14.63;6.82;;;;;;;31.88;46.48;94353.69;4909506;29;20111;-75
2021/08/05 08:50:28;;;;;;;12.38;7.50;;;;;;;32.41;47.02;94370.13;4928129;29;20485;-75
2021/08/05 08:52:54;;;;;;;8.95;6.93;;;;;;;32.23;46.14;94365.94;4910601;29;20842;-75
2021/08/05 08:55:20;;;;;;;11.75;7.15;;;;;;;31.68;47.71;94355.94;4914684;29;20496;-74
2021/08/05 08:57:45;;;;;;;12.27;6.80;;;;;;;32.15;46.66;94343.41;4925427;29;20020;-74
2021/08/05 09:00:11;;;;;;;9.23;6.60;;;;;;;32.72;45.72;94351.84;4927303;29;20257;-74
2021/08/05 09:02:37;;;;;;;10.15;6.72;;;;;;;32.50;45.04;94340.56;4933302;29;20118;-73
2021/08/05 09:05:06;;;;;;;9.25;6.80;;;;;;;32.15;46.18;94348.75;4924086;29;20035;-74
2021/08/05 09:07:33;;;;;;;9.60;7.95;;;;;;;32.09;45.61;94344.69;4928898;29;20115;-74
2021/08/05 09:09:58;;;;;;;11.85;6.20;;;;;;;32.34;46.66;94340.31;4926951;29;20032;-75
2021/08/05 09:12:24;;;;;;;9.55;7.07;;;;;;;32.85;45.07;94340.09;4930587;29;20656;-74
2021/08/05 09:14:51;;;;;;;6.95;6.30;;;;;;;33.52;44.29;94341.84;4912822;29;20626;-74
2021/08/05 09:17:24;;;;;;;10.65;6.18;;;;;;;33.28;44.63;94331.75;4929918;29;20032;-74
2021/08/05 09:19:51;;;;;;;8.65;6.68;;;;;;;33.68;44.21;94323.22;4913227;29;20058;-74
2021/08/05 09:22:42;;;;;;;10.32;6.55;;;;;;;33.43;43.89;94318.84;4929417;29;20032;-74
2021/08/05 09:25:17;;;;;;;10.63;6.75;;;;;;;33.62;42.57;94309.19;4931139;29;20027;-73
2021/08/05 09:27:42;;;;;;;17.60;8.43;;;;;;;33.08;42.88;94311.03;4929666;29;20024;-74
2021/08/05 09:30:08;;;;;;;14.02;7.00;;;;;;;33.95;41.85;94306.47;4915070;29;20470;-74
2021/08/05 09:32:34;;;;;;;13.68;7.13;;;;;;;33.90;40.85;94306.72;4927696;29;20032;-74
2021/08/05 09:35:04;;;;;;;9.95;7.20;;;;;;;33.54;39.68;94301.19;4931765;29;20031;-77
2021/08/05 09:37:37;;;;;;;15.23;7.60;;;;;;;33.18;39.46;94297.22;4911378;29;20046;-73
2021/08/05 09:40:10;;;;;;;11.45;6.53;;;;;;;33.76;41.83;94298.16;4913365;29;20035;-75
2021/08/05 09:42:35;;;;;;;8.35;7.10;;;;;;;33.79;41.73;94290.19;4946371;29;20035;-73
2021/08/05 09:45:02;;;;;;;9.73;6.85;;;;;;;33.53;42.58;94281.59;4928539;29;20049;-74
2021/08/05 09:47:27;;;;;;;13.63;6.40;;;;;;;34.03;42.19;94277.94;4930768;29;20019;-76
2021/08/05 09:49:55;;;;;;;17.35;7.65;;;;;;;33.81;42.03;94279.13;4925601;29;20406;-73
2021/08/05 09:52:26;;;;;;;8.93;6.85;;;;;;;34.15;41.70;94269.88;4930460;29;20031;-74
2021/08/05 09:54:52;;;;;;;12.77;7.03;;;;;;;34.52;41.67;94259.91;4928540;29;20482;-75
2021/08/05 09:57:25;;;;;;;10.05;7.28;;;;;;;34.02;41.08;94249.44;4926640;29;20055;-74
2021/08/05 10:00:00;;;;;;;146.85;15.05;;;;;;;34.50;41.65;94241.41;4927908;29;20037;-80
2021/08/05 10:02:27;;;;;;;16.00;7.68;;;;;;;34.68;38.78;94242.75;4937228;29;20055;-73
2021/08/05 10:04:56;;;;;;;11.43;6.28;;;;;;;34.62;38.61;94246.78;4932930;29;20050;-75
2021/08/05 10:07:21;;;;;;;14.23;7.55;;;;;;;34.84;39.08;94235.53;4938138;29;20030;-76
2021/08/05 10:09:56;;;;;;;12.57;7.18;;;;;;;34.74;38.07;94236.00;4933708;29;20043;-78
2021/08/05 10:12:23;;;;;;;11.43;7.32;;;;;;;34.38;39.93;94228.75;4917387;29;20070;-74
2021/08/05 10:14:50;;;;;;;13.37;7.03;;;;;;;34.84;39.30;94226.66;4947992;28;20015;-75
2021/08/05 10:17:17;;;;;;;13.82;6.15;;;;;;;34.99;37.84;94225.94;4933730;29;20498;-76
2021/08/05 10:19:44;;;;;;;19.98;8.60;;;;;;;34.36;38.24;94211.34;4920010;29;20106;-73
2021/08/05 10:22:12;;;;;;;10.63;6.82;;;;;;;34.06;37.51;94210.03;4914338;29;20464;-74
2021/08/05 10:24:39;;;;;;;18.58;7.43;;;;;;;34.90;37.07;94204.53;4926635;29;20035;-75
2021/08/05 10:27:06;;;;;;;20.67;7.60;;;;;;;35.38;36.45;94195.47;4933511;29;20035;-76
2021/08/05 10:29:32;;;;;;;17.58;7.80;;;;;;;34.88;36.86;94200.63;4927945;29;20061;-74
2021/08/05 10:31:58;;;;;;;16.15;7.80;;;;;;;35.00;37.58;94199.81;4930891;29;20023;-74
2021/08/05 10:34:24;;;;;;;14.38;7.60;;;;;;;35.23;36.76;94200.84;4931992;28;20105;-74
2021/08/05 10:36:50;;;;;;;13.25;7.97;;;;;;;34.83;38.03;94201.66;4945850;29;20122;-79
2021/08/05 10:39:16;;;;;;;21.45;6.93;;;;;;;35.05;36.93;94200.34;4930427;29;21128;-76
2021/08/05 10:41:41;;;;;;;16.42;7.43;;;;;;;35.24;35.91;94188.94;4929829;29;20113;-76
2021/08/05 10:44:07;;;;;;;15.18;9.07;;;;;;;34.99;34.99;94182.06;4910102;29;20058;-76
2021/08/05 10:46:35;;;;;;;17.35;8.73;;;;;;;34.89;31.81;94184.13;4930280;29;20043;-76
2021/08/05 10:49:04;;;;;;;17.50;7.13;;;;;;;35.29;31.59;94181.38;4931744;29;20402;-76
2021/08/05 10:51:35;;;;;;;;;;;;;;;35.56;32.68;94178.97;4933303;29;20401;-76
2021/08/05 10:54:01;;;;;;;16.65;7.95;;;;;;;35.72;32.17;94167.09;4930121;29;19984;-79
2021/08/05 10:56:30;;;;;;;19.05;7.50;;;;;;;36.13;32.13;94170.41;4933134;29;20059;-76
2021/08/05 10:59:04;;;;;;;21.33;8.65;;;;;;;35.39;31.21;94161.22;4946993;29;20031;-79
2021/08/05 11:01:45;;;;;;;17.38;6.93;;;;;;;35.96;32.93;94153.41;4929806;29;20043;-77
2021/08/05 11:04:32;;;;;;;13.23;7.15;;;;;;;36.10;31.96;94144.13;4930221;29;20102;-77
2021/08/05 11:07:33;;;;;;;20.73;7.18;;;;;;;36.90;31.55;94138.91;4923171;29;20036;-78
2021/08/05 11:10:16;;;;;;;16.25;7.22;;;;;;;36.56;31.94;94135.16;4928014;29;20027;-78
2021/08/05 11:12:51;;;;;;;13.80;7.07;;;;;;;36.68;29.98;94135.00;4928363;29;20031;-78
2021/08/05 11:15:24;;;;;;;17.05;7.97;;;;;;;36.14;29.50;94129.59;4925898;29;20035;-77
2021/08/05 11:18:02;;;;;;;18.30;8.77;;;;;;;35.63;32.49;94123.38;4923892;29;20031;-79
2021/08/05 11:20:27;;;;;;;17.73;7.73;;;;;;;35.71;31.72;94124.31;4928156;29;20028;-82
2021/08/05 11:22:53;;;;;;;15.48;7.10;;;;;;;36.56;31.01;94118.94;4928521;29;20536;-81
2021/08/05 11:25:19;;;;;;;13.77;7.75;;;;;;;36.44;30.69;94108.25;4925634;29;20039;-79
2021/08/05 11:28:20;;;;;;;18.63;8.35;;;;;;;36.80;30.38;94105.13;4922163;29;20035;-78
2021/08/05 11:30:55;;;;;;;13.27;7.38;;;;;;;36.51;31.99;94092.19;4923765;29;20028;-76
2021/08/05 11:33:39;;;;;;;14.70;7.68;;;;;;;36.16;32.00;94086.03;4924796;29;20126;-81
2021/08/05 11:36:19;;;;;;;19.38;9.10;;;;;;;36.39;30.65;94084.22;4930314;29;20031;-78
2021/08/05 11:38:58;;;;;;;18.98;8.32;;;;;;;36.39;30.66;94076.13;4929451;29;20023;-77
2021/08/05 11:41:41;;;;;;;;;;;;;;;36.66;30.47;94075.16;4928856;29;20028;-78
2021/08/05 11:44:16;;;;;;;15.02;8.73;;;;;;;36.53;29.89;94054.03;4921445;29;19915;-77
2021/08/05 11:46:41;;;;;;;15.93;9.77;;;;;;;37.18;26.66;94057.63;4919470;29;20015;-77
2021/08/05 11:49:07;;;;;;;22.73;9.20;;;;;;;37.58;27.93;94057.91;4919822;29;20035;-78
2021/08/05 11:51:32;;;;;;;14.68;8.48;;;;;;;36.96;29.26;94046.38;4935071;29;20039;-77
2021/08/05 11:53:58;;;;;;;20.73;10.63;;;;;;;37.80;26.73;94038.13;4923020;29;20043;-77
2021/08/05 11:56:23;;;;;;;19.42;9.32;;;;;;;37.10;26.58;94034.28;4924355;29;20078;-76
2021/08/05 11:58:49;;;;;;;20.10;8.55;;;;;;;36.85;27.81;94029.22;4928501;29;20039;-77
2021/08/05 12:01:14;;;;;;;17.85;8.82;;;;;;;37.37;28.31;94025.88;4912600;29;20556;-78
2021/08/05 12:03:40;;;;;;;33.25;10.23;;;;;;;37.38;28.46;94023.94;4926994;29;20516;-76
2021/08/05 12:06:05;;;;;;;19.00;8.77;;;;;;;37.73;26.63;94012.94;4908350;29;20028;-77
2021/08/05 12:08:31;;;;;;;15.75;8.30;;;;;;;38.25;26.99;94014.78;4895476;29;20485;-78
2021/08/05 12:10:56;;;;;;;21.98;10.02;;;;;;;36.94;26.32;94010.06;4913305;29;20032;-76
2021/08/05 12:13:22;;;;;;;27.35;10.25;;;;;;;37.89;26.57;94006.19;4927164;29;20024;-78
2021/08/05 12:15:53;;;;;;;19.23;9.27;;;;;;;37.54;25.26;93992.16;4911486;29;20142;-76
2021/08/05 12:18:20;;;;;;;16.83;9.00;;;;;;;37.30;27.75;93989.84;4898083;29;20056;-80
2021/08/05 12:20:50;;;;;;;15.15;8.50;;;;;;;36.86;28.19;93992.94;4910616;29;20031;-79
2021/08/05 12:28:53;;;;;;;19.65;9.15;;;;;;;37.02;26.68;93981.28;4889288;29;20612;-76
2021/08/05 12:31:23;;;;;;;14.85;8.80;;;;;;;37.07;26.50;93973.66;4925465;29;20044;-79
2021/08/05 12:33:50;;;;;;;20.88;10.18;;;;;;;37.12;25.72;93961.78;4915386;29;20027;-76
2021/08/05 12:36:23;;;;;;;16.58;9.45;;;;;;;36.98;24.55;93963.06;4916632;29;20398;-75
2021/08/05 12:38:56;;;;;;;19.08;10.05;;;;;;;36.55;25.61;93966.16;4915005;29;20032;-77
2021/08/05 12:41:35;;;;;;;21.75;11.30;;;;;;;36.44;26.47;93970.56;4900782;29;20172;-75
2021/08/05 12:44:11;;;;;;;23.77;9.93;;;;;;;36.48;27.42;93961.38;4933652;29;20027;-75
2021/08/05 12:46:37;;;;;;;20.85;9.93;;;;;;;36.54;27.92;93958.44;4894061;29;20091;-75
2021/08/05 12:49:03;;;;;;;27.15;10.52;;;;;;;35.89;30.29;93964.47;4930355;29;20036;-74
2021/08/05 12:51:30;;;;;;;16.38;10.07;;;;;;;35.75;30.48;93961.47;4910078;29;20028;-76
2021/08/05 12:53:55;;;;;;;16.38;10.10;;;;;;;35.63;30.80;93960.81;4913058;29;20401;-76
2021/08/05 12:56:52;;;;;;;18.83;9.32;;;;;;;35.67;30.93;93951.69;4911327;29;20043;-75
2021/08/05 12:59:18;;;;;;;13.68;8.98;;;;;;;35.82;30.25;93967.03;4928005;29;20457;-75
2021/08/05 13:01:44;;;;;;;22.23;9.90;;;;;;;35.77;28.56;93964.59;4930384;29;20516;-75
2021/08/05 13:04:22;;;;;;;18.15;9.75;;;;;;;36.10;29.20;93956.03;4914318;29;20027;-75
2021/08/05 13:06:57;;;;;;;14.50;8.82;;;;;;;36.12;29.42;93963.78;4952203;29;20058;-75
2021/08/05 13:09:25;;;;;;;23.95;10.98;;;;;;;35.59;28.89;93968.81;4933876;29;20043;-74
2021/08/05 13:11:51;;;;;;;20.58;8.93;;;;;;;35.79;29.67;93970.41;4934379;29;20036;-75
2021/08/05 13:14:37;;;;;;;22.40;9.68;;;;;;;35.36;31.18;93970.56;4934654;29;20024;-75
2021/08/05 13:17:03;;;;;;;14.23;9.13;;;;;;;35.11;32.95;93966.53;4949417;29;20126;-76
2021/08/05 13:19:28;;;;;;;15.38;9.52;;;;;;;34.62;33.63;93963.38;4951440;29;20109;-76
2021/08/05 13:21:55;;;;;;;13.02;8.50;;;;;;;34.69;33.97;93977.00;4916789;28;20031;-77
2021/08/05 13:24:20;;;;;;;13.02;9.48;;;;;;;34.38;35.25;93985.81;4951562;29;20489;-76
2021/08/05 13:26:47;;;;;;;17.92;8.38;;;;;;;34.30;35.26;93968.69;4933213;29;20038;-75
2021/08/05 13:29:39;;;;;;;14.73;7.95;;;;;;;34.26;35.13;93975.09;4934616;29;20106;-77
2021/08/05 13:32:06;;;;;;;18.05;9.15;;;;;;;34.27;34.58;93973.97;4935401;29;20039;-75
2021/08/05 13:34:32;;;;;;;23.50;9.70;;;;;;;34.24;34.77;93974.66;4919025;29;20080;-76
2021/08/05 13:36:57;;;;;;;22.70;10.60;;;;;;;34.08;35.31;93965.72;4932401;29;20027;-77
2021/08/05 13:39:56;;;;;;;20.10;9.25;;;;;;;33.91;36.41;93967.56;4949476;28;20497;-75
2021/08/05 13:42:22;;;;;;;12.00;8.48;;;;;;;33.94;36.22;93970.72;4903892;29;20066;-76
2021/08/05 13:44:47;;;;;;;15.05;8.77;;;;;;;33.83;36.82;93954.28;4942608;29;20024;-76
2021/08/05 13:47:14;;;;;;;20.88;9.80;;;;;;;33.66;37.34;93954.53;4936348;29;20418;-77
2021/08/05 13:49:40;;;;;;;23.80;10.43;;;;;;;33.50;38.00;93950.97;4950377;29;20497;-77
2021/08/05 13:52:06;;;;;;;14.30;8.45;;;;;;;33.50;38.15;93950.97;4925651;29;20027;-74
2021/08/05 13:54:32;;;;;;;18.85;8.43;;;;;;;33.44;38.49;93947.72;4918251;29;20034;-77
2021/08/05 13:56:59;;;;;;;15.07;9.70;;;;;;;33.43;38.55;93951.53;4931951;29;20629;-75
2021/08/05 13:59:27;;;;;;;14.00;8.88;;;;;;;33.40;38.51;93949.53;4948342;29;20565;-77
2021/08/05 14:01:53;;;;;;;15.30;9.52;;;;;;;33.32;38.49;93942.38;4938699;29;20051;-76
2021/08/05 14:04:18;;;;;;;15.95;9.85;;;;;;;33.20;39.24;93940.47;4916304;29;20038;-76
2021/08/05 14:06:44;;;;;;;16.90;9.23;;;;;;;33.08;39.47;93935.09;4933185;29;20540;-75
2021/08/05 14:09:10;;;;;;;20.80;9.75;;;;;;;33.08;39.60;93950.41;4932000;29;20413;-76
2021/08/05 14:11:36;;;;;;;18.60;9.57;;;;;;;32.93;39.69;93949.22;4933805;29;20032;-75
2021/08/05 14:14:02;;;;;;;15.88;10.15;;;;;;;32.92;40.03;93957.59;4932036;29;20027;-76
2021/08/05 14:16:27;;;;;;;16.33;9.30;;;;;;;32.86;40.04;93960.50;4933399;29;20444;-77
2021/08/05 14:18:52;;;;;;;18.02;9.40;;;;;;;32.82;40.17;93964.97;4949702;29;20050;-75
2021/08/05 14:21:18;;;;;;;14.05;8.93;;;;;;;32.71;41.07;93946.97;4932935;29;20032;-76
2021/08/05 14:23:43;;;;;;;12.77;8.18;;;;;;;32.67;41.32;93946.06;4893604;29;20031;-77
2021/08/05 14:26:09;;;;;;;18.42;9.60;;;;;;;32.65;40.97;93942.94;4922194;29;20032;-77
2021/08/05 14:28:34;;;;;;;15.73;9.55;;;;;;;32.59;41.39;93938.91;4943007;29;20019;-78
2021/08/05 14:31:00;;;;;;;21.80;9.07;;;;;;;32.73;41.11;93940.13;4861679;29;20040;-80
2021/08/05 14:33:25;;;;;;;16.80;11.20;;;;;;;32.65;41.47;93924.16;4929363;29;20035;-76
2021/08/05 14:35:52;;;;;;;17.67;9.50;;;;;;;32.62;41.52;93922.91;4900517;29;20035;-80
2021/08/05 14:38:18;;;;;;;19.00;9.90;;;;;;;32.59;41.75;93912.06;4913880;29;20450;-79
2021/08/05 14:40:43;;;;;;;18.50;9.93;;;;;;;32.60;41.93;93914.41;4926232;29;20036;-82
2021/08/05 14:43:08;;;;;;;17.27;8.38;;;;;;;32.47;42.37;93910.09;4912563;29;20566;-78
2021/08/05 14:45:34;;;;;;;13.80;9.18;;;;;;;32.42;42.94;93915.69;4931442;29;20024;-78
2021/08/05 14:48:00;;;;;;;14.95;9.00;;;;;;;32.44;43.12;93915.34;4913178;29;20055;-79
2021/08/05 14:50:25;;;;;;;14.20;9.35;;;;;;;32.37;42.65;93891.75;4894804;29;20028;-81
2021/08/05 14:52:51;;;;;;;11.35;8.65;;;;;;;32.31;43.50;93885.84;4917532;29;20083;-79
2021/08/05 14:55:16;;;;;;;16.77;10.40;;;;;;;32.25;43.74;93886.38;4898104;29;20035;-80
2021/08/05 14:57:41;;;;;;;17.70;8.93;;;;;;;32.23;43.77;93894.00;4849325;29;20054;-77
2021/08/05 15:00:08;;;;;;;18.35;9.15;;;;;;;32.15;43.98;93894.84;4897225;29;20039;-77
2021/08/05 15:02:34;;;;;;;20.05;10.85;;;;;;;32.14;44.23;93895.97;4926733;29;20181;-78
2021/08/05 15:05:00;;;;;;;18.02;10.05;;;;;;;32.06;44.57;93883.44;4912139;29;20054;-77
2021/08/05 15:07:25;;;;;;;14.98;9.90;;;;;;;32.00;44.75;93885.53;4947553;28;20039;-76
2021/08/05 15:09:51;;;;;;;13.68;9.57;;;;;;;32.00;44.93;93874.00;4925896;29;20028;-81
2021/08/05 15:12:16;;;;;;;17.10;10.27;;;;;;;31.85;44.76;93865.47;4926374;29;20035;-79
2021/08/05 15:14:42;;;;;;;17.02;9.48;;;;;;;31.82;45.70;93866.13;4911236;29;20020;-80
2021/08/05 15:17:08;;;;;;;13.95;10.07;;;;;;;31.79;45.82;93866.00;4929710;29;20039;-80
2021/08/05 15:19:35;;;;;;;13.77;10.48;;;;;;;31.72;45.75;93869.22;4928507;29;20061;-80
2021/08/05 15:22:00;;;;;;;19.70;11.18;;;;;;;31.74;45.30;93864.34;4928412;29;20020;-83
2021/08/05 15:24:29;;;;;;;21.65;10.63;;;;;;;31.63;45.64;93849.78;4929933;29;20031;-81
2021/08/05 15:26:54;;;;;;;20.75;11.00;;;;;;;31.56;45.76;93841.50;4925304;29;20059;-80
2021/08/05 15:29:23;;;;;;;18.05;10.40;;;;;;;31.49;46.05;93829.72;4901959;29;20024;-82
2021/08/05 15:31:49;;;;;;;17.58;10.68;;;;;;;31.53;45.78;93833.34;4911366;29;20036;-82
2021/08/05 15:34:19;;;;;;;21.75;10.25;;;;;;;31.44;45.84;93822.66;4946804;29;20394;-92
2021/08/05 15:36:44;;;;;;;23.00;12.20;;;;;;;31.67;45.79;93836.50;4928661;29;20383;-83
2021/08/05 15:39:10;;;;;;;19.27;10.38;;;;;;;31.69;46.00;93810.94;4929744;29;20095;-85
2021/08/05 15:41:35;;;;;;;18.95;11.65;;;;;;;31.75;45.64;93806.19;4910464;29;20031;-82
2021/08/05 15:44:01;;;;;;;17.23;10.57;;;;;;;31.71;45.97;93778.47;4909319;29;20023;-86
2021/08/05 15:46:27;;;;;;;22.88;11.20;;;;;;;31.70;46.68;93791.09;4928265;29;20035;-87
2021/08/05 15:48:55;;;;;;;16.13;10.95;;;;;;;31.71;46.96;93789.19;4934384;29;20390;-90
2021/08/05 15:51:21;;;;;;;20.90;11.63;;;;;;;31.73;46.67;93793.09;4930295;29;20023;-84
2021/08/05 15:53:48;;;;;;;18.80;12.13;;;;;;;31.71;46.14;93798.03;4912921;29;20094;-84
2021/08/05 15:56:15;;;;;;;21.88;11.55;;;;;;;31.69;46.67;93786.84;4926853;29;20039;-84
2021/08/05 15:58:41;;;;;;;20.88;11.20;;;;;;;31.71;46.90;93786.53;4927490;29;20019;-83
2021/08/05 16:01:06;;;;;;;23.10;11.65;;;;;;;31.73;46.83;93785.06;4911703;29;20086;-84
2021/08/05 16:03:32;;;;;;;19.92;11.25;;;;;;;31.68;46.51;93793.31;4927778;29;20035;-82
2021/08/05 16:05:57;;;;;;;19.58;11.27;;;;;;;31.75;46.26;93788.22;4926095;29;20054;-82
2021/08/05 16:08:23;;;;;;;22.67;11.65;;;;;;;31.81;46.23;93792.25;4928261;29;20051;-82
2021/08/05 16:10:48;;;;;;;22.27;11.05;;;;;;;31.82;46.40;93790.34;4925550;29;20501;-81
2021/08/05 16:13:16;;;;;;;18.52;12.02;;;;;;;31.82;45.80;93793.78;4927881;29;20036;-81
2021/08/05 16:15:42;;;;;;;22.23;12.43;;;;;;;31.70;46.14;93776.91;4926521;29;20604;-84
2021/08/05 16:18:08;;;;;;;17.63;11.45;;;;;;;31.71;45.84;93787.31;4926419;29;20501;-78
2021/08/05 16:20:34;;;;;;;19.45;11.13;;;;;;;31.69;46.93;93789.50;4910933;29;20565;-81
2021/08/05 16:23:00;;;;;;;21.42;11.38;;;;;;;31.55;46.91;93783.69;4925169;29;20028;-81
2021/08/05 16:25:25;;;;;;;19.67;11.25;;;;;;;31.43;46.96;93775.59;4911926;29;20035;-83
2021/08/05 16:27:51;;;;;;;15.77;11.18;;;;;;;31.36;47.84;93786.06;4925281;29;20020;-85
2021/08/05 16:30:16;;;;;;;20.63;11.63;;;;;;;31.28;47.29;93773.50;4928705;29;20050;-81
2021/08/05 16:32:42;;;;;;;17.02;10.68;;;;;;;31.25;47.78;93787.56;4927483;29;20024;-84
2021/08/05 16:35:08;;;;;;;17.60;11.35;;;;;;;31.11;47.79;93763.75;4928321;29;20537;-86